createdAt,value
2018-07-02T00:03:52.720Z,20.14
2018-07-02T00:08:47.936Z,19.98
2018-07-02T00:13:43.149Z,19.85
2018-07-02T00:18:38.301Z,19.69
2018-07-02T00:23:33.613Z,19.58
2018-07-02T00:28:28.619Z,19.71
2018-07-02T00:33:23.803Z,19.52
2018-07-02T00:38:36.000Z,19.29
2018-07-02T00:44:29.792Z,19.41
2018-07-02T00:49:39.529Z,19.05
2018-07-02T00:54:34.719Z,19.21
2018-07-02T00:59:29.979Z,19.11
2018-07-02T01:04:25.668Z,19.09
2018-07-02T01:09:25.109Z,19.14
2018-07-02T01:14:22.361Z,19.07
2018-07-02T01:19:42.617Z,19.07
2018-07-02T01:24:39.531Z,18.80
2018-07-02T01:29:37.124Z,18.79
2018-07-02T01:39:44.762Z,18.47
2018-07-02T01:46:20.629Z,18.51
2018-07-02T01:51:16.580Z,18.60
2018-07-02T02:06:53.868Z,18.02
2018-07-02T02:11:50.561Z,17.97
2018-07-02T02:16:46.561Z,17.97
2018-07-02T02:22:12.547Z,18.00
2018-07-02T02:27:07.743Z,17.96
2018-07-02T02:32:30.662Z,17.87
2018-07-02T02:37:27.954Z,17.89
2018-07-02T02:42:23.044Z,17.87
2018-07-02T02:47:18.351Z,17.77
2018-07-02T02:52:14.608Z,17.68
2018-07-02T02:57:09.700Z,17.95
2018-07-02T03:02:54.090Z,17.69
2018-07-02T03:07:49.387Z,17.45
2018-07-02T03:12:44.809Z,17.42
2018-07-02T03:17:41.746Z,17.64
2018-07-02T03:22:36.938Z,17.47
2018-07-02T03:28:23.053Z,17.35
2018-07-02T03:33:43.526Z,17.41
2018-07-02T03:38:38.561Z,17.45
2018-07-02T03:43:34.260Z,17.49
2018-07-02T03:48:31.465Z,17.45
2018-07-02T03:58:54.096Z,17.62
2018-07-02T04:04:06.036Z,17.29
2018-07-02T04:09:02.251Z,17.46
2018-07-02T04:13:57.483Z,17.54
2018-07-02T04:18:57.668Z,17.39
2018-07-02T04:23:54.641Z,17.83
2018-07-02T04:28:49.963Z,17.80
2018-07-02T04:33:59.619Z,17.95
2018-07-02T04:39:26.077Z,18.09
2018-07-02T04:44:21.152Z,18.64
2018-07-02T04:49:15.950Z,18.94
2018-07-02T04:54:12.800Z,19.09
2018-07-02T04:59:07.782Z,19.46
2018-07-02T05:04:02.941Z,19.64
2018-07-02T05:08:57.862Z,19.89
2018-07-02T05:13:52.601Z,19.82
2018-07-02T05:18:47.375Z,20.26
2018-07-02T05:23:42.637Z,20.24
2018-07-02T05:28:37.797Z,20.54
2018-07-02T05:35:28.515Z,20.72
2018-07-02T05:40:32.193Z,20.58
2018-07-02T05:45:28.895Z,20.70
2018-07-02T05:50:25.233Z,20.40
2018-07-02T05:55:21.202Z,20.06
2018-07-02T06:01:16.288Z,19.98
2018-07-02T06:06:16.589Z,20.53
2018-07-02T06:11:33.103Z,20.34
2018-07-02T06:16:29.050Z,20.45
2018-07-02T06:21:23.917Z,20.48
2018-07-02T06:26:18.872Z,20.28
2018-07-02T06:31:13.670Z,20.74
2018-07-02T06:36:08.863Z,20.81
2018-07-02T07:03:15.236Z,21.09
2018-07-02T07:08:10.555Z,21.93
2018-07-02T07:13:05.769Z,22.80
2018-07-02T07:18:01.108Z,22.91
2018-07-02T07:22:56.833Z,23.33
2018-07-02T07:27:51.786Z,22.98
2018-07-02T07:32:46.678Z,23.39
2018-07-02T07:37:59.986Z,23.70
2018-07-02T07:42:56.367Z,23.72
2018-07-02T07:47:51.350Z,23.66
2018-07-02T07:52:47.235Z,23.91
2018-07-02T07:57:42.920Z,24.08
2018-07-02T08:02:37.823Z,24.66
2018-07-02T08:07:32.725Z,24.73
2018-07-02T08:12:27.704Z,24.50
2018-07-02T08:17:22.450Z,24.49
2018-07-02T08:22:17.747Z,24.63
2018-07-02T08:27:15.424Z,25.15
2018-07-02T08:32:23.934Z,25.64
2018-07-02T08:37:18.702Z,26.02
2018-07-02T08:42:13.436Z,25.85
2018-07-02T08:47:08.535Z,26.21
2018-07-02T08:52:03.332Z,25.99
2018-07-02T08:56:58.052Z,26.07
2018-07-02T09:01:55.171Z,26.31
2018-07-02T09:06:52.862Z,26.32
2018-07-02T09:11:47.642Z,26.16
2018-07-02T09:16:43.018Z,26.70
2018-07-02T09:26:52.956Z,27.54
2018-07-02T09:31:47.923Z,27.51
2018-07-02T09:36:43.785Z,27.50
2018-07-02T09:41:39.703Z,26.87
2018-07-02T09:46:34.432Z,27.50
2018-07-02T09:51:29.560Z,27.07
2018-07-02T09:56:24.418Z,27.48
2018-07-02T10:01:19.483Z,27.18
2018-07-02T10:06:14.350Z,27.32
2018-07-02T10:11:09.385Z,27.81
2018-07-02T10:16:04.269Z,27.94
2018-07-02T10:20:59.567Z,27.94
2018-07-02T10:25:54.629Z,28.13
2018-07-02T10:30:49.454Z,28.41
2018-07-02T10:35:44.386Z,28.02
2018-07-02T10:40:41.045Z,28.07
2018-07-02T10:45:35.959Z,28.71
2018-07-02T10:55:50.975Z,28.94
2018-07-02T11:00:46.000Z,29.10
2018-07-02T11:05:40.936Z,29.24
2018-07-02T11:10:35.810Z,29.07
2018-07-02T11:15:30.766Z,29.45
2018-07-02T11:20:25.766Z,29.53
2018-07-02T11:25:20.644Z,29.79
2018-07-02T11:30:15.585Z,29.99
2018-07-02T11:35:10.806Z,29.43
2018-07-02T11:40:06.167Z,29.82
2018-07-02T11:45:01.134Z,29.92
2018-07-02T11:49:55.992Z,29.95
2018-07-02T11:54:50.983Z,29.79
2018-07-02T11:59:46.520Z,29.90
2018-07-02T12:04:48.554Z,29.95
2018-07-02T12:15:10.652Z,30.04
2018-07-02T12:20:06.076Z,29.70
2018-07-02T12:25:00.951Z,30.13
2018-07-02T12:29:57.332Z,30.00
2018-07-02T12:34:52.376Z,30.10
2018-07-02T12:39:47.358Z,30.13
2018-07-02T12:44:42.447Z,29.92
2018-07-02T12:49:37.379Z,29.79
2018-07-02T12:54:32.394Z,29.88
2018-07-02T12:59:27.545Z,29.98
2018-07-02T13:04:23.405Z,29.82
2018-07-02T13:09:18.379Z,29.73
2018-07-02T13:14:13.306Z,29.89
2018-07-02T13:19:09.348Z,29.85
2018-07-02T13:24:04.341Z,29.85
2018-07-02T13:28:59.350Z,29.91
2018-07-02T13:33:55.243Z,29.83
2018-07-02T13:38:50.568Z,29.77
2018-07-02T13:43:45.585Z,29.85
2018-07-02T13:48:42.559Z,29.95
2018-07-02T13:53:37.659Z,30.03
2018-07-02T13:58:32.802Z,29.77
2018-07-02T14:03:30.119Z,29.93
2018-07-02T14:14:03.641Z,29.48
2018-07-02T14:18:58.219Z,29.96
2018-07-02T14:23:52.840Z,30.12
2018-07-02T14:28:47.651Z,29.94
2018-07-02T14:33:42.254Z,29.97
2018-07-02T14:38:36.815Z,29.68
2018-07-02T14:43:31.402Z,29.75
2018-07-02T14:48:25.993Z,29.53
2018-07-02T14:53:20.613Z,29.83
2018-07-02T14:58:15.200Z,29.66
2018-07-02T15:03:09.832Z,29.74
2018-07-02T15:08:04.495Z,29.51
2018-07-02T15:12:59.087Z,29.47
2018-07-02T15:17:53.787Z,29.31
2018-07-02T15:22:48.459Z,29.24
2018-07-02T15:27:43.215Z,29.48
2018-07-02T15:32:37.829Z,29.18
2018-07-02T15:37:32.459Z,29.30
2018-07-02T15:42:27.125Z,29.59
2018-07-02T15:47:21.781Z,29.23
2018-07-02T15:52:16.109Z,29.44
2018-07-02T15:57:10.715Z,29.32
2018-07-02T16:02:05.437Z,29.26
2018-07-02T16:07:00.112Z,29.39
2018-07-02T16:11:54.730Z,29.43
2018-07-02T16:16:49.448Z,29.28
2018-07-02T16:21:44.132Z,29.05
2018-07-02T16:26:38.791Z,29.05
2018-07-02T16:31:33.436Z,29.26
2018-07-02T16:36:28.081Z,29.25
2018-07-02T16:41:22.714Z,29.17
2018-07-02T16:46:17.441Z,29.15
2018-07-02T16:51:12.006Z,29.11
2018-07-02T16:56:06.809Z,28.90
2018-07-02T17:01:01.475Z,28.83
2018-07-02T17:05:55.787Z,28.91
2018-07-02T17:10:50.414Z,28.94
2018-07-02T17:15:45.140Z,28.69
2018-07-02T17:20:39.765Z,28.70
2018-07-02T17:25:34.375Z,28.63
2018-07-02T17:30:29.008Z,28.66
2018-07-02T17:35:23.643Z,28.52
2018-07-02T17:40:18.215Z,28.66
2018-07-02T17:45:12.836Z,28.53
2018-07-02T17:50:07.715Z,28.59
2018-07-02T17:55:02.310Z,28.46
2018-07-02T17:59:56.927Z,28.40
2018-07-02T18:04:51.585Z,28.17
2018-07-02T18:09:46.204Z,28.15
2018-07-02T18:14:40.832Z,28.19
2018-07-02T18:19:35.535Z,28.02
2018-07-02T18:24:30.208Z,27.90
2018-07-02T18:29:24.828Z,27.74
2018-07-02T18:34:19.479Z,27.27
2018-07-02T18:39:14.228Z,27.22
2018-07-02T18:44:09.187Z,27.28
2018-07-02T18:49:03.537Z,27.40
2018-07-02T18:53:58.136Z,27.08
2018-07-02T18:58:52.859Z,26.87
2018-07-02T19:03:47.508Z,26.76
2018-07-02T19:08:42.224Z,26.77
2018-07-02T19:13:36.822Z,26.68
2018-07-02T19:23:26.375Z,26.15
2018-07-02T19:28:20.988Z,26.11
2018-07-02T19:33:15.637Z,25.94
2018-07-02T19:38:10.515Z,25.72
2018-07-02T19:43:05.156Z,25.75
2018-07-02T19:47:59.835Z,25.64
2018-07-02T19:52:54.504Z,25.66
2018-07-02T19:57:49.120Z,25.59
2018-07-02T20:02:43.824Z,25.64
2018-07-02T20:07:38.421Z,25.44
2018-07-02T20:12:33.201Z,25.29
2018-07-02T20:17:27.857Z,25.25
2018-07-02T20:22:22.480Z,25.02
2018-07-02T20:27:17.148Z,24.87
2018-07-02T20:32:11.772Z,24.72
2018-07-02T20:37:06.599Z,24.76
2018-07-02T20:42:01.281Z,24.85
2018-07-02T20:46:55.923Z,24.80
2018-07-02T20:51:50.570Z,24.87
2018-07-02T20:56:45.195Z,24.69
2018-07-02T21:01:39.919Z,24.59
2018-07-02T21:06:34.535Z,24.53
2018-07-02T21:11:29.177Z,24.54
2018-07-02T21:16:23.791Z,24.26
2018-07-02T21:21:18.684Z,24.11
2018-07-02T21:26:13.332Z,23.97
2018-07-02T21:31:07.969Z,23.78
2018-07-02T21:36:02.656Z,23.93
2018-07-02T21:40:58.435Z,23.87
2018-07-02T21:45:53.101Z,23.77
2018-07-02T21:50:47.732Z,23.72
2018-07-02T21:55:42.343Z,23.57
2018-07-02T22:00:37.781Z,23.39
2018-07-02T22:05:32.489Z,23.40
2018-07-02T22:10:26.816Z,23.27
2018-07-02T22:15:21.441Z,23.14
2018-07-02T22:20:16.072Z,22.87
2018-07-02T22:25:10.762Z,22.93
2018-07-02T22:30:05.478Z,22.91
2018-07-02T22:35:00.117Z,22.74
2018-07-02T22:39:54.767Z,22.87
2018-07-02T22:44:49.363Z,22.74
2018-07-02T22:49:43.998Z,22.78
2018-07-02T22:54:38.627Z,22.60
2018-07-02T22:59:33.276Z,22.55
2018-07-02T23:04:28.064Z,22.33
2018-07-02T23:09:23.833Z,22.26
2018-07-02T23:14:18.518Z,22.19
2018-07-02T23:19:13.104Z,22.25
2018-07-02T23:24:07.781Z,22.04
2018-07-02T23:29:02.358Z,21.85
2018-07-02T23:33:57.029Z,21.92
2018-07-02T23:38:51.637Z,21.93
2018-07-02T23:43:46.226Z,22.04
2018-07-02T23:48:40.884Z,21.97
2018-07-02T23:53:35.488Z,21.82
2018-07-02T23:58:30.199Z,21.59
